Time;durP1;ratioP1;P1;durP2;ratioP2;P2;SDS_P1;SDS_P2;PMS_P1;PMS_P2;Temp;Humidity;BMP_temperature;BMP_pressure;BME280_temperature;BME280_humidity;BME280_pressure;Samples;Min_cycle;Max_cycle;Signal;HPM_P1;HPM_P2
2023/03/08 00:01:13;;;;;;;1.60;1.35;;;;;;;2.84;100.00;98558.53;6153643;23;20231;-90
2023/03/08 00:03:39;;;;;;;3.08;0.70;;;;;;;2.70;100.00;98542.41;6152887;23;20047;-90
2023/03/08 00:06:06;;;;;;;7.13;2.70;;;;;;;2.79;100.00;98551.59;6152410;23;20013;-91
2023/03/08 00:08:31;;;;;;;0.93;0.93;;;;;;;2.59;100.00;98519.94;6179446;23;20001;-90
2023/03/08 00:10:57;;;;;;;4.57;1.98;;;;;;;2.60;100.00;98535.91;6153464;23;20028;-90
2023/03/08 00:13:23;;;;;;;1.75;1.23;;;;;;;2.64;100.00;98546.81;6153378;23;20020;-90
2023/03/08 00:15:48;;;;;;;0.80;0.80;;;;;;;2.57;100.00;98533.25;6151388;23;20020;-90
2023/03/08 00:18:14;;;;;;;0.73;0.73;;;;;;;2.56;100.00;98527.00;6154165;23;20032;-91
2023/03/08 00:20:39;;;;;;;0.70;0.70;;;;;;;2.74;100.00;98552.09;6178864;23;20067;-91
2023/03/08 00:23:05;;;;;;;2.85;1.65;;;;;;;2.60;100.00;98538.66;6151856;23;20059;-91
2023/03/08 00:25:30;;;;;;;0.93;0.93;;;;;;;2.46;100.00;98519.00;6153023;23;20032;-90
2023/03/08 00:27:56;;;;;;;0.95;0.95;;;;;;;2.49;100.00;98538.09;6128694;23;20013;-91
2023/03/08 00:30:21;;;;;;;1.33;1.33;;;;;;;2.35;100.00;98530.13;6178978;23;20013;-90
2023/03/08 00:32:47;;;;;;;1.17;1.10;;;;;;;2.39;100.00;98544.50;6128179;23;20043;-91
2023/03/08 00:35:13;;;;;;;1.30;1.17;;;;;;;2.45;100.00;98564.75;6104801;23;20017;-90
2023/03/08 00:37:38;;;;;;;0.98;0.98;;;;;;;2.33;100.00;98562.63;6126991;23;20016;-90
2023/03/08 00:40:05;;;;;;;0.47;0.47;;;;;;;2.29;100.00;98550.97;6153433;23;20075;-91
2023/03/08 00:42:33;;;;;;;0.47;0.47;;;;;;;2.28;100.00;98549.41;6128899;23;20348;-91
2023/03/08 00:44:59;;;;;;;0.63;0.63;;;;;;;2.32;100.00;98564.56;6153711;23;20009;-90
2023/03/08 00:47:26;;;;;;;1.00;0.95;;;;;;;2.38;100.00;98578.56;6152296;23;20005;-91
2023/03/08 00:49:52;;;;;;;3.30;1.48;;;;;;;2.31;100.00;98576.69;6129590;23;20438;-90
2023/03/08 00:52:20;;;;;;;1.70;1.25;;;;;;;2.29;100.00;98581.06;6152686;23;20389;-91
2023/03/08 00:54:45;;;;;;;2.40;2.20;;;;;;;2.24;100.00;98576.84;6130141;23;20020;-91
2023/03/08 00:57:11;;;;;;;1.50;1.40;;;;;;;2.03;100.00;98557.25;6151822;23;20005;-90
2023/03/08 00:59:36;;;;;;;0.85;0.85;;;;;;;2.04;100.00;98564.28;6152690;23;20017;-91
2023/03/08 01:02:03;;;;;;;0.80;0.80;;;;;;;2.09;100.00;98572.00;6128814;23;20041;-91
2023/03/08 01:04:29;;;;;;;0.22;0.22;;;;;;;2.04;100.00;98561.53;6152534;23;20055;-90
2023/03/08 01:06:55;;;;;;;2.08;1.52;;;;;;;1.98;100.00;98566.72;6126851;23;20016;-92
2023/03/08 01:09:21;;;;;;;1.00;0.70;;;;;;;1.94;100.00;98568.75;6152062;23;20345;-91
2023/03/08 01:11:46;;;;;;;0.45;0.45;;;;;;;1.94;100.00;98573.44;6152713;23;20044;-91
2023/03/08 01:14:12;;;;;;;1.75;1.65;;;;;;;1.85;100.00;98563.00;6130269;23;20035;-91
2023/03/08 01:16:38;;;;;;;0.85;0.65;;;;;;;1.92;100.00;98576.56;6128371;23;20017;-90
2023/03/08 01:19:04;;;;;;;2.65;2.08;;;;;;;1.93;100.00;98599.22;6154465;23;20017;-91
2023/03/08 01:21:30;;;;;;;1.83;1.73;;;;;;;1.91;100.00;98599.63;6128687;23;20140;-91
2023/03/08 01:23:57;;;;;;;2.58;1.85;;;;;;;1.81;100.00;98592.38;6130807;23;20063;-92
2023/03/08 01:26:24;;;;;;;0.65;0.65;;;;;;;1.94;100.00;98589.84;6154625;23;20013;-90
2023/03/08 01:28:54;;;;;;;2.33;2.15;;;;;;;1.88;100.00;98575.84;6154985;23;20021;-90
2023/03/08 01:31:22;;;;;;;1.83;1.70;;;;;;;1.93;100.00;98578.13;6129227;23;20017;-91
2023/03/08 01:33:50;;;;;;;2.28;2.08;;;;;;;1.97;100.00;98578.84;6106934;23;20020;-90
2023/03/08 01:36:18;;;;;;;2.88;2.05;;;;;;;2.19;100.00;98590.19;6129654;23;20013;-90
2023/03/08 01:38:46;;;;;;;1.40;1.30;;;;;;;2.05;100.00;98558.41;6154357;23;20008;-91
2023/03/08 01:41:17;;;;;;;0.75;0.75;;;;;;;2.28;100.00;98582.25;6154582;23;20009;-91
2023/03/08 01:43:43;;;;;;;0.30;0.30;;;;;;;2.11;100.00;98553.22;6181419;23;20009;-92
2023/03/08 01:46:27;;;;;;;2.30;2.10;;;;;;;2.33;100.00;98573.56;6154745;23;20123;-91
2023/03/08 01:49:07;;;;;;;1.33;1.23;;;;;;;2.35;100.00;98579.38;6107236;23;20017;-90
2023/03/08 01:51:46;;;;;;;0.80;0.80;;;;;;;2.37;100.00;98579.75;6180301;23;20482;-90
2023/03/08 01:54:15;;;;;;;0.98;0.90;;;;;;;2.29;100.00;98561.91;6154527;23;20017;-91
2023/03/08 01:56:42;;;;;;;1.85;1.73;;;;;;;2.32;100.00;98556.38;6154260;23;20341;-90
2023/03/08 01:59:10;;;;;;;3.47;2.05;;;;;;;2.32;100.00;98563.81;6129573;23;20413;-90
2023/03/08 02:01:36;;;;;;;3.88;3.08;;;;;;;2.24;100.00;98554.16;6152725;23;20037;-91
2023/03/08 02:04:02;;;;;;;2.50;1.38;;;;;;;2.39;100.00;98580.09;6154266;23;20020;-91
2023/03/08 02:06:31;;;;;;;2.63;2.03;;;;;;;2.28;100.00;98565.81;6129106;23;20088;-90
2023/03/08 02:08:57;;;;;;;1.40;1.33;;;;;;;2.35;100.00;98565.69;6153944;23;20045;-91
2023/03/08 02:11:24;;;;;;;0.65;0.65;;;;;;;2.53;100.00;98593.53;6153679;23;20056;-91
2023/03/08 02:13:51;;;;;;;2.30;1.35;;;;;;;2.41;100.00;98572.25;6129030;23;20441;-90
2023/03/08 02:16:18;;;;;;;1.58;1.48;;;;;;;2.38;100.00;98570.34;6129034;23;20019;-90
2023/03/08 02:18:52;;;;;;;2.47;2.28;;;;;;;2.28;100.00;98557.63;6128884;23;20017;-90
2023/03/08 02:21:20;;;;;;;0.82;0.82;;;;;;;2.38;100.00;98575.81;6123564;23;20028;-90
2023/03/08 02:23:51;;;;;;;1.33;1.30;;;;;;;2.49;100.00;98586.56;6117822;23;20013;-91
2023/03/08 02:26:17;;;;;;;2.92;1.88;;;;;;;2.49;100.00;98586.56;6148642;23;20013;-91
2023/03/08 02:28:43;;;;;;;0.80;0.80;;;;;;;2.45;100.00;98575.69;6127638;23;20017;-91
2023/03/08 02:31:10;;;;;;;0.25;0.25;;;;;;;2.55;100.00;98595.88;6179439;23;20445;-91
2023/03/08 02:33:36;;;;;;;1.58;0.70;;;;;;;2.45;100.00;98588.59;6179365;23;20043;-91
2023/03/08 02:36:03;;;;;;;1.38;1.27;;;;;;;2.53;100.00;98601.75;6153958;23;20001;-93
2023/03/08 02:38:29;;;;;;;1.00;0.98;;;;;;;2.42;100.00;98586.72;6152908;23;20025;-90
2023/03/08 02:40:57;;;;;;;2.28;2.17;;;;;;;2.49;100.00;98603.00;6129379;23;20036;-92
2023/03/08 02:43:22;;;;;;;0.80;0.75;;;;;;;2.51;100.00;98601.38;6152925;23;20005;-91
2023/03/08 02:45:48;;;;;;;1.17;1.13;;;;;;;2.58;100.00;98614.97;6154286;23;20020;-92
2023/03/08 02:48:14;;;;;;;1.67;1.40;;;;;;;2.51;100.00;98593.16;6179504;23;20017;-91
2023/03/08 02:50:40;;;;;;;0.77;0.77;;;;;;;2.63;100.00;98603.50;6153314;23;20017;-92
2023/03/08 02:53:07;;;;;;;0.98;0.98;;;;;;;2.70;100.00;98614.34;6153184;23;20012;-91
2023/03/08 02:55:36;;;;;;;2.47;1.80;;;;;;;2.72;100.00;98622.91;6179936;23;20013;-91
2023/03/08 02:58:07;;;;;;;2.20;2.00;;;;;;;2.75;100.00;98626.81;6146776;23;20083;-92
2023/03/08 03:00:33;;;;;;;0.35;0.35;;;;;;;2.57;100.00;98599.72;6153452;23;20441;-91
2023/03/08 03:03:00;;;;;;;1.75;1.65;;;;;;;2.54;100.00;98595.09;6129985;23;20024;-91
2023/03/08 03:05:26;;;;;;;0.95;0.68;;;;;;;2.81;100.00;98625.88;6106005;23;20357;-91
2023/03/08 03:07:54;;;;;;;0.85;0.85;;;;;;;2.71;100.00;98604.94;6155597;23;20084;-90
2023/03/08 03:10:20;;;;;;;1.27;1.23;;;;;;;2.81;100.00;98628.63;6105832;23;20068;-91
2023/03/08 03:12:45;;;;;;;2.75;2.55;;;;;;;2.86;100.00;98632.84;6130871;23;20021;-92
2023/03/08 03:15:15;;;;;;;1.08;0.98;;;;;;;2.78;100.00;98617.75;6156576;23;20067;-91
2023/03/08 03:17:43;;;;;;;0.70;0.70;;;;;;;2.82;100.00;98615.72;6154660;23;20013;-92
2023/03/08 03:20:09;;;;;;;1.48;1.05;;;;;;;2.98;100.00;98632.22;6155350;23;20436;-92
2023/03/08 03:22:36;;;;;;;2.35;1.65;;;;;;;3.03;100.00;98642.72;6130421;23;20017;-91
2023/03/08 03:25:03;;;;;;;0.60;0.60;;;;;;;3.00;100.00;98649.00;6154961;23;20100;-91
2023/03/08 03:27:29;;;;;;;1.13;0.93;;;;;;;2.90;100.00;98644.50;6155929;23;20009;-92
2023/03/08 03:29:55;;;;;;;2.75;2.28;;;;;;;2.95;100.00;98646.00;6154083;23;20068;-91
2023/03/08 03:32:20;;;;;;;2.20;1.75;;;;;;;3.00;100.00;98648.22;6155285;23;20393;-92
2023/03/08 03:34:47;;;;;;;1.52;1.40;;;;;;;3.08;100.00;98663.34;6120323;23;20345;-91
2023/03/08 03:37:15;;;;;;;0.73;0.73;;;;;;;3.03;100.00;98655.63;6155348;23;20040;-90
2023/03/08 03:39:40;;;;;;;2.20;2.10;;;;;;;2.91;100.00;98639.81;6155822;23;20020;-91
2023/03/08 03:42:09;;;;;;;5.20;2.33;;;;;;;3.09;100.00;98673.13;6155822;23;20025;-90
2023/03/08 03:44:38;;;;;;;2.65;2.45;;;;;;;2.98;100.00;98651.41;6155899;23;20041;-92
2023/03/08 03:47:04;;;;;;;1.92;1.83;;;;;;;2.94;100.00;98644.44;6131104;23;20017;-91
2023/03/08 03:49:30;;;;;;;1.25;1.10;;;;;;;3.16;100.00;98672.97;6155745;23;20009;-91
2023/03/08 03:51:56;;;;;;;1.48;1.27;;;;;;;3.18;100.00;98665.91;6128565;23;20088;-91
2023/03/08 03:54:26;;;;;;;1.48;1.38;;;;;;;3.10;100.00;98648.03;6107120;23;20463;-91
2023/03/08 03:56:57;;;;;;;1.60;1.50;;;;;;;3.24;100.00;98663.44;6105798;23;20021;-91
2023/03/08 03:59:24;;;;;;;2.65;2.47;;;;;;;3.20;100.00;98651.75;6129491;23;20021;-91
2023/03/08 04:01:50;;;;;;;2.20;2.00;;;;;;;3.29;100.00;98654.72;6129945;23;20056;-91
2023/03/08 04:04:22;;;;;;;1.98;1.85;;;;;;;3.28;100.00;98650.44;6178795;23;20012;-92
2023/03/08 04:06:48;;;;;;;1.65;1.55;;;;;;;3.40;100.00;98658.00;6104183;23;20063;-91
2023/03/08 04:09:17;;;;;;;0.80;0.80;;;;;;;3.41;100.00;98656.84;6129943;23;20017;-91
2023/03/08 04:11:48;;;;;;;4.63;2.58;;;;;;;3.34;100.00;98650.72;6104939;23;20024;-92
2023/03/08 04:14:18;;;;;;;1.27;1.23;;;;;;;3.44;100.00;98672.44;6129916;23;20028;-90
2023/03/08 04:16:44;;;;;;;1.85;1.75;;;;;;;3.37;100.00;98669.06;6153061;23;20025;-90
2023/03/08 04:19:17;;;;;;;0.30;0.30;;;;;;;3.32;100.00;98664.84;6151953;23;20024;-91
2023/03/08 04:21:50;;;;;;;0.50;0.50;;;;;;;3.24;100.00;98657.94;6130203;23;20556;-91
2023/03/08 04:24:16;;;;;;;0.85;0.85;;;;;;;3.26;100.00;98652.84;6154166;23;20099;-91
2023/03/08 04:26:44;;;;;;;2.30;0.55;;;;;;;3.12;100.00;98640.16;6127748;23;20031;-90
2023/03/08 04:29:13;;;;;;;1.00;1.00;;;;;;;3.09;100.00;98657.44;6153889;23;20039;-93
2023/03/08 04:31:39;;;;;;;2.28;2.08;;;;;;;3.10;100.00;98652.75;6125652;23;20136;-90
2023/03/08 04:34:10;;;;;;;1.20;1.20;;;;;;;3.18;100.00;98665.13;6127275;23;20424;-90
2023/03/08 04:36:36;;;;;;;1.60;1.50;;;;;;;3.13;100.00;98651.91;6152275;23;20013;-91
2023/03/08 04:39:02;;;;;;;0.88;0.88;;;;;;;3.20;100.00;98658.00;6127043;23;20381;-90
2023/03/08 04:41:28;;;;;;;1.90;1.80;;;;;;;3.29;100.00;98665.69;6130050;23;20013;-91
2023/03/08 04:44:12;;;;;;;;;;;;;;;3.31;100.00;98655.09;6157231;23;20012;-91
2023/03/08 04:46:43;;;;;;;0.63;0.63;;;;;;;3.24;100.00;98645.03;6129723;23;19983;-90
2023/03/08 04:49:13;;;;;;;0.80;0.80;;;;;;;3.39;100.00;98663.94;6131272;23;20009;-89
2023/03/08 04:51:44;;;;;;;0.55;0.55;;;;;;;3.38;100.00;98643.97;6127829;23;20017;-94
2023/03/08 04:54:11;;;;;;;1.88;1.52;;;;;;;3.27;100.00;98640.69;6128832;23;20040;-90
2023/03/08 04:56:43;;;;;;;2.85;1.88;;;;;;;3.35;100.00;98668.72;6151697;23;20459;-93
2023/03/08 04:59:13;;;;;;;0.90;0.88;;;;;;;3.23;100.00;98650.94;6125712;23;20043;-93
2023/03/08 05:01:38;;;;;;;0.73;0.73;;;;;;;3.37;100.00;98678.06;6149131;23;20025;-91
2023/03/08 05:04:05;;;;;;;1.25;1.15;;;;;;;3.40;100.00;98701.13;6127245;23;20020;-90
2023/03/08 05:06:36;;;;;;;1.45;1.38;;;;;;;3.30;100.00;98700.13;6126278;23;20703;-90
2023/03/08 05:09:03;;;;;;;1.35;1.27;;;;;;;3.38;100.00;98712.50;6151035;23;20040;-91
2023/03/08 05:11:29;;;;;;;2.38;2.17;;;;;;;3.27;100.00;98703.72;6150289;23;20027;-90
2023/03/08 05:13:58;;;;;;;2.20;2.00;;;;;;;3.39;100.00;98718.75;6102274;23;20087;-91
2023/03/08 05:16:25;;;;;;;0.75;0.75;;;;;;;3.35;100.00;98709.84;6127796;23;20020;-90
2023/03/08 05:18:51;;;;;;;1.30;1.27;;;;;;;3.29;100.00;98704.81;6153313;23;20338;-90
2023/03/08 05:21:21;;;;;;;5.50;3.72;;;;;;;3.25;100.00;98708.81;6150936;23;20425;-90
2023/03/08 05:23:51;;;;;;;2.60;2.28;;;;;;;3.21;100.00;98702.63;6102563;23;20016;-91
2023/03/08 05:26:20;;;;;;;1.52;1.42;;;;;;;3.24;100.00;98719.00;6180183;23;20036;-90
2023/03/08 05:28:47;;;;;;;1.35;0.98;;;;;;;3.04;100.00;98685.31;6154744;23;20027;-89
2023/03/08 05:31:16;;;;;;;2.22;1.63;;;;;;;3.28;100.00;98719.72;6104992;23;20461;-91
2023/03/08 05:33:45;;;;;;;0.88;0.77;;;;;;;3.30;100.00;98722.06;6128991;23;20061;-91
2023/03/08 05:36:13;;;;;;;1.92;1.80;;;;;;;3.34;100.00;98727.47;6129921;23;20349;-90
2023/03/08 05:38:41;;;;;;;1.33;1.23;;;;;;;3.33;100.00;98721.19;6105687;23;20013;-91
2023/03/08 05:41:13;;;;;;;1.67;1.50;;;;;;;3.29;100.00;98725.97;6107313;23;20091;-91
2023/03/08 05:43:41;;;;;;;1.13;1.02;;;;;;;3.29;100.00;98723.25;6129353;23;20095;-90
2023/03/08 05:46:15;;;;;;;6.22;2.78;;;;;;;3.19;100.00;98708.56;6102508;23;20076;-90
2023/03/08 05:48:42;;;;;;;4.70;2.08;;;;;;;3.13;100.00;98706.69;6098413;23;20327;-93
2023/03/08 05:51:11;;;;;;;3.17;2.50;;;;;;;3.18;100.00;98726.19;6138963;23;20623;-91
2023/03/08 05:53:37;;;;;;;2.20;0.82;;;;;;;3.14;100.00;98738.41;6125072;23;20056;-91
2023/03/08 05:56:19;;;;;;;1.52;1.42;;;;;;;3.11;100.00;98736.50;6124388;23;20013;-92
2023/03/08 05:59:01;;;;;;;1.83;1.15;;;;;;;3.05;100.00;98724.47;6104628;23;20017;-91
2023/03/08 06:01:28;;;;;;;1.20;1.13;;;;;;;3.10;100.00;98743.16;6116167;23;20025;-92
2023/03/08 06:04:03;;;;;;;0.98;0.98;;;;;;;3.16;100.00;98757.91;6123199;23;20072;-90
2023/03/08 06:06:33;;;;;;;7.38;2.05;;;;;;;3.08;100.00;98740.06;6123901;23;20071;-91
2023/03/08 06:09:02;;;;;;;1.13;1.10;;;;;;;3.14;100.00;98757.56;6100536;23;20013;-91
2023/03/08 06:11:29;;;;;;;2.92;1.60;;;;;;;3.13;100.00;98754.06;6101663;23;20109;-92
2023/03/08 06:13:56;;;;;;;2.13;2.03;;;;;;;3.13;100.00;98750.53;6101885;23;20013;-90
2023/03/08 06:16:24;;;;;;;1.25;1.15;;;;;;;3.00;100.00;98741.38;6128082;23;20422;-91
2023/03/08 06:18:51;;;;;;;0.95;0.95;;;;;;;3.06;100.00;98756.16;6127484;23;20025;-89
2023/03/08 06:21:20;;;;;;;0.60;0.60;;;;;;;3.11;100.00;98763.91;6101538;23;20017;-90
2023/03/08 06:23:49;;;;;;;0.35;0.35;;;;;;;3.13;100.00;98750.53;6129045;23;20009;-89
2023/03/08 06:26:15;;;;;;;1.13;1.08;;;;;;;3.35;100.00;98765.44;6106666;23;20017;-94
2023/03/08 06:28:41;;;;;;;1.67;1.58;;;;;;;3.46;100.00;98768.75;6111066;23;20021;-93
2023/03/08 06:31:17;;;;;;;1.38;1.33;;;;;;;3.65;100.00;98778.16;6106474;23;20198;-94
2023/03/08 06:33:42;;;;;;;1.50;1.27;;;;;;;3.75;100.00;98786.22;6105317;23;20441;-94
2023/03/08 06:36:20;;;;;;;1.38;1.30;;;;;;;3.91;100.00;98784.72;6106790;23;20461;-94
2023/03/08 06:38:47;;;;;;;1.48;1.38;;;;;;;4.17;100.00;98792.00;6133197;23;20095;-95
2023/03/08 06:41:15;;;;;;;3.22;2.70;;;;;;;4.40;100.00;98771.94;6108086;23;20052;-94
2023/03/08 06:43:42;;;;;;;3.78;1.63;;;;;;;4.72;100.00;98801.44;6156750;23;20016;-94
2023/03/08 06:46:10;;;;;;;1.33;1.23;;;;;;;4.83;100.00;98804.69;6156796;23;20047;-94
2023/03/08 06:48:36;;;;;;;4.20;2.13;;;;;;;4.80;100.00;98786.31;6131648;23;20449;-93
2023/03/08 06:51:03;;;;;;;3.28;2.60;;;;;;;4.95;100.00;98810.28;6132011;23;20024;-95
2023/03/08 06:53:29;;;;;;;4.78;2.60;;;;;;;4.76;100.00;98788.38;6105547;23;20318;-95
2023/03/08 06:56:01;;;;;;;1.00;0.75;;;;;;;4.82;100.00;98806.66;6132028;23;20079;-93
2023/03/08 06:58:30;;;;;;;2.08;1.98;;;;;;;4.78;100.00;98791.47;6131074;23;20025;-95
2023/03/08 07:00:58;;;;;;;2.63;1.45;;;;;;;4.77;100.00;98795.44;6155501;23;20033;-94
2023/03/08 07:03:24;;;;;;;3.85;2.90;;;;;;;4.80;100.00;98795.34;6131435;23;20017;-95
2023/03/08 07:05:49;;;;;;;1.10;1.05;;;;;;;4.88;100.00;98788.47;6155904;23;20013;-93
2023/03/08 07:08:15;;;;;;;1.67;1.60;;;;;;;5.13;100.00;98815.38;6130282;23;20009;-93
2023/03/08 07:10:40;;;;;;;3.10;1.95;;;;;;;5.32;100.00;98833.75;6105575;23;20460;-94
2023/03/08 07:13:06;;;;;;;2.78;2.50;;;;;;;5.21;100.00;98807.72;6154776;23;20024;-93
2023/03/08 07:15:32;;;;;;;2.58;2.40;;;;;;;5.48;100.00;98830.19;6107026;23;20005;-94
2023/03/08 07:17:57;;;;;;;1.77;1.67;;;;;;;5.48;100.00;98808.97;6131170;23;20009;-94
2023/03/08 07:20:25;;;;;;;0.52;0.52;;;;;;;5.73;100.00;98835.06;6130826;23;20025;-94
2023/03/08 07:22:51;;;;;;;1.65;1.55;;;;;;;5.65;100.00;98823.47;6107622;23;20063;-94
2023/03/08 07:25:18;;;;;;;1.85;1.75;;;;;;;5.71;100.00;98837.47;6132332;23;20021;-95
2023/03/08 07:27:44;;;;;;;2.25;2.05;;;;;;;5.82;100.00;98859.97;6156452;23;20593;-95
2023/03/08 07:30:12;;;;;;;1.20;1.10;;;;;;;5.80;100.00;98852.16;6132121;23;20041;-94
2023/03/08 07:32:39;;;;;;;1.92;1.83;;;;;;;5.84;100.00;98860.31;6130860;23;20020;-94
2023/03/08 07:35:06;;;;;;;2.55;1.48;;;;;;;5.68;100.00;98830.84;6132369;23;20044;-94
2023/03/08 07:37:32;;;;;;;0.88;0.88;;;;;;;5.94;100.00;98868.34;6131086;23;20017;-93
2023/03/08 07:39:58;;;;;;;1.92;1.73;;;;;;;6.03;100.00;98851.16;6156525;23;20017;-94
2023/03/08 07:42:26;;;;;;;1.15;1.10;;;;;;;5.99;100.00;98839.47;6107161;23;20016;-93
2023/03/08 07:44:55;;;;;;;1.85;1.52;;;;;;;6.06;100.00;98839.31;6134547;23;20005;-94
2023/03/08 07:47:21;;;;;;;0.80;0.80;;;;;;;6.19;100.00;98834.59;6130827;23;20437;-96
2023/03/08 07:49:46;;;;;;;1.80;1.38;;;;;;;6.29;100.00;98841.00;6131762;23;20401;-95
2023/03/08 07:52:12;;;;;;;1.10;1.08;;;;;;;6.57;100.00;98865.75;6131906;23;20096;-95
2023/03/08 07:54:38;;;;;;;1.02;0.93;;;;;;;6.57;100.00;98843.72;6155912;23;20009;-95
2023/03/08 07:57:04;;;;;;;1.23;1.13;;;;;;;6.79;100.00;98848.59;6155849;23;20336;-93
2023/03/08 07:59:31;;;;;;;1.63;1.52;;;;;;;7.04;100.00;98854.88;6131194;23;20520;-93
2023/03/08 08:01:56;;;;;;;1.73;1.60;;;;;;;7.01;100.00;98863.25;6130944;23;20009;-95
2023/03/08 08:04:22;;;;;;;0.65;0.60;;;;;;;6.86;100.00;98837.34;6131662;23;20311;-93
2023/03/08 08:06:48;;;;;;;1.92;1.83;;;;;;;6.81;100.00;98832.38;6107298;23;20096;-94
2023/03/08 08:09:14;;;;;;;0.57;0.57;;;;;;;6.99;100.00;98830.63;6106954;23;20009;-92
2023/03/08 08:11:40;;;;;;;1.08;1.08;;;;;;;7.26;100.00;98830.16;6131016;23;20406;-93
2023/03/08 08:14:06;;;;;;;1.60;1.38;;;;;;;7.40;100.00;98837.94;6107402;23;20018;-94
2023/03/08 08:16:32;;;;;;;1.30;1.13;;;;;;;7.40;100.00;98815.88;6130782;23;20067;-93
2023/03/08 08:18:58;;;;;;;1.23;1.15;;;;;;;7.65;100.00;98825.31;6156115;23;20013;-93
2023/03/08 08:21:24;;;;;;;1.83;1.73;;;;;;;7.96;100.00;98843.56;6107369;23;20449;-94
2023/03/08 08:23:49;;;;;;;1.05;1.02;;;;;;;8.15;100.00;98816.84;6106926;23;20449;-93
2023/03/08 08:26:17;;;;;;;4.38;2.50;;;;;;;8.38;100.00;98821.91;6131121;23;20008;-93
2023/03/08 08:28:44;;;;;;;1.90;1.80;;;;;;;8.67;100.00;98837.44;6131256;23;20031;-94
2023/03/08 08:31:12;;;;;;;3.42;2.40;;;;;;;9.06;100.00;98839.44;6131539;23;20013;-94
2023/03/08 08:33:38;;;;;;;1.77;1.67;;;;;;;9.02;100.00;98816.69;6106509;23;20076;-93
2023/03/08 08:36:06;;;;;;;4.57;2.47;;;;;;;9.23;100.00;98818.59;6156584;23;20055;-94
2023/03/08 08:38:31;;;;;;;3.97;3.15;;;;;;;9.58;100.00;98829.44;6106580;23;20012;-94
2023/03/08 08:41:01;;;;;;;2.67;1.45;;;;;;;9.93;100.00;98839.00;6131429;23;20017;-94
2023/03/08 08:43:27;;;;;;;1.70;1.60;;;;;;;10.22;100.00;98830.25;6130928;23;20122;-93
2023/03/08 08:45:55;;;;;;;0.60;0.60;;;;;;;10.42;100.00;98838.09;6131687;23;20453;-96
2023/03/08 08:48:21;;;;;;;1.30;0.90;;;;;;;10.23;100.00;98821.47;6106129;23;20089;-93
2023/03/08 08:50:46;;;;;;;2.10;2.00;;;;;;;10.31;100.00;98810.09;6126503;23;20025;-95
2023/03/08 08:53:12;;;;;;;1.50;1.40;;;;;;;10.43;100.00;98829.31;6123914;23;20442;-95
2023/03/08 08:55:38;;;;;;;1.58;1.48;;;;;;;10.37;100.00;98822.84;6155702;23;20001;-94
2023/03/08 08:58:04;;;;;;;1.30;1.20;;;;;;;10.28;100.00;98826.41;6131228;23;20009;-95
2023/03/08 09:00:32;;;;;;;1.25;0.93;;;;;;;9.92;100.00;98795.91;6130783;23;20441;-92
2023/03/08 09:02:58;;;;;;;0.55;0.55;;;;;;;10.10;100.00;98823.63;6131160;23;20072;-93
2023/03/08 09:05:24;;;;;;;1.23;0.45;;;;;;;10.05;100.00;98829.78;6138205;23;20051;-96
2023/03/08 09:07:54;;;;;;;1.30;1.20;;;;;;;10.01;100.00;98820.06;6171591;23;20078;-93
2023/03/08 09:10:20;;;;;;;2.50;0.40;;;;;;;9.97;100.00;98819.47;6135061;23;20385;-92
2023/03/08 09:12:46;;;;;;;0.32;0.30;;;;;;;9.76;100.00;98816.38;6107198;23;20012;-94
2023/03/08 09:15:11;;;;;;;1.77;1.67;;;;;;;9.91;100.00;98813.75;6131690;23;20060;-93
2023/03/08 09:17:38;;;;;;;0.75;0.73;;;;;;;9.65;100.00;98801.47;6130087;23;20005;-95
2023/03/08 09:20:05;;;;;;;1.65;1.30;;;;;;;9.90;100.00;98826.09;6106643;23;20021;-92
2023/03/08 09:22:31;;;;;;;0.75;0.57;;;;;;;9.97;100.00;98820.25;6106023;23;20036;-95
2023/03/08 09:24:56;;;;;;;1.98;1.15;;;;;;;10.15;100.00;98808.41;6105430;23;20426;-94
2023/03/08 09:27:22;;;;;;;0.40;0.40;;;;;;;10.01;100.00;98798.69;6104910;23;20021;-91
2023/03/08 09:29:48;;;;;;;7.68;1.20;;;;;;;9.71;100.00;98791.28;6106594;23;20088;-93
2023/03/08 09:32:13;;;;;;;1.58;0.98;;;;;;;9.52;100.00;98790.53;6105744;23;20029;-93
2023/03/08 09:34:39;;;;;;;5.22;1.65;;;;;;;9.58;100.00;98777.63;6105934;23;20438;-95
2023/03/08 09:37:07;;;;;;;8.82;2.03;;;;;;;9.62;100.00;98796.84;6106828;23;20100;-94
2023/03/08 09:39:33;;;;;;;0.82;0.82;;;;;;;9.49;100.00;98779.59;6130729;23;20013;-93
2023/03/08 09:42:01;;;;;;;0.85;0.85;;;;;;;9.78;100.00;98768.84;6131174;23;20426;-93
2023/03/08 09:45:04;;;;;;;0.10;0.10;;;;;;;9.76;100.00;98799.00;6130518;23;20084;-96
2023/03/08 09:47:47;;;;;;;0.70;0.55;;;;;;;9.62;100.00;98789.31;6155085;23;20021;-95
2023/03/08 09:50:12;;;;;;;1.08;0.75;;;;;;;9.61;100.00;98800.84;6107061;23;20341;-96
2023/03/08 09:52:45;;;;;;;3.63;2.08;;;;;;;9.34;100.00;98774.66;6155694;23;20005;-95
2023/03/08 09:55:29;;;;;;;0.33;0.20;;;;;;;9.58;100.00;98780.38;6107535;23;20013;-95
2023/03/08 09:57:57;;;;;;;1.40;1.30;;;;;;;9.65;100.00;98766.25;6108700;23;20352;-95
2023/03/08 10:00:28;;;;;;;1.33;1.25;;;;;;;9.83;100.00;98787.59;6106429;23;20028;-96
2023/03/08 10:03:02;;;;;;;0.60;0.60;;;;;;;9.87;100.00;98777.13;6105926;23;20017;-95
2023/03/08 10:05:46;;;;;;;3.08;1.90;;;;;;;9.95;100.00;98778.38;6103201;23;20022;-96
2023/03/08 10:08:19;;;;;;;0.60;0.47;;;;;;;9.77;100.00;98748.69;6130844;23;20063;-96
2023/03/08 10:11:07;;;;;;;1.98;1.80;;;;;;;9.97;100.00;98775.91;6138172;23;20028;-95
2023/03/08 10:13:36;;;;;;;0.30;0.30;;;;;;;9.98;100.00;98776.69;6106757;23;20020;-96
2023/03/08 10:16:04;;;;;;;1.50;1.40;;;;;;;10.12;100.00;98771.28;6155872;23;20009;-95
2023/03/08 10:18:39;;;;;;;0.80;0.80;;;;;;;10.25;100.00;98774.66;6180181;23;20075;-94
2023/03/08 10:21:05;;;;;;;0.73;0.73;;;;;;;10.48;100.00;98776.00;6130075;23;20072;-96
2023/03/08 10:23:32;;;;;;;2.22;2.10;;;;;;;10.67;100.00;98771.16;6131572;23;20052;-96
2023/03/08 10:25:59;;;;;;;0.90;0.90;;;;;;;10.75;100.00;98761.28;6107771;23;20017;-96
2023/03/08 10:28:26;;;;;;;0.70;0.40;;;;;;;10.78;100.00;98738.13;6155237;23;20009;-95
2023/03/08 10:30:59;;;;;;;0.80;0.70;;;;;;;11.00;100.00;98769.16;6107705;23;20020;-94
2023/03/08 10:33:31;;;;;;;0.22;0.22;;;;;;;10.94;100.00;98767.50;6131446;23;20044;-96
2023/03/08 10:36:03;;;;;;;0.75;0.52;;;;;;;10.96;100.00;98779.66;6130716;23;20508;-96
2023/03/08 10:38:32;;;;;;;0.75;0.75;;;;;;;10.67;100.00;98760.06;6130747;23;20013;-96
2023/03/08 10:41:11;;;;;;;0.98;0.88;;;;;;;10.87;100.00;98778.94;6106632;23;20005;-94
2023/03/08 10:43:43;;;;;;;1.35;1.27;;;;;;;10.93;100.00;98780.59;6131056;23;20017;-96
2023/03/08 10:46:30;;;;;;;0.90;0.90;;;;;;;10.83;100.00;98762.47;6106900;23;20021;-95
2023/03/08 10:49:07;;;;;;;2.00;1.10;;;;;;;10.82;100.00;98772.03;6106598;23;20484;-95
2023/03/08 10:51:33;;;;;;;0.35;0.35;;;;;;;10.69;100.00;98763.13;6106041;23;20009;-96
2023/03/08 10:54:03;;;;;;;0.47;0.47;;;;;;;10.86;100.00;98758.75;6130876;23;20071;-95
2023/03/08 10:56:39;;;;;;;0.73;0.73;;;;;;;11.00;100.00;98765.63;6106788;23;20024;-94
2023/03/08 10:59:12;;;;;;;0.45;0.45;;;;;;;11.13;100.00;98775.25;6130428;23;20021;-96
2023/03/08 11:01:48;;;;;;;1.15;0.63;;;;;;;11.20;100.00;98774.91;6129922;23;20017;-95
2023/03/08 11:04:19;;;;;;;1.85;1.75;;;;;;;11.33;100.00;98760.78;6130408;23;20063;-94
2023/03/08 11:06:45;;;;;;;3.65;1.88;;;;;;;11.20;100.00;98744.38;6106207;23;20009;-96
2023/03/08 11:09:29;;;;;;;1.42;1.33;;;;;;;11.27;100.00;98751.59;6106370;23;20354;-95
2023/03/08 11:11:59;;;;;;;0.50;0.50;;;;;;;11.21;100.00;98736.81;6130812;23;20009;-96
2023/03/08 11:14:25;;;;;;;1.33;1.27;;;;;;;11.33;100.00;98735.81;6131056;23;20426;-96
2023/03/08 11:17:06;;;;;;;0.30;0.30;;;;;;;11.36;100.00;98709.13;6106000;23;20044;-95
2023/03/08 11:19:58;;;;;;;0.98;0.98;;;;;;;11.62;100.00;98730.34;6155153;23;20114;-95
2023/03/08 11:22:24;;;;;;;2.28;1.95;;;;;;;11.73;100.00;98731.84;6107899;23;20031;-96
2023/03/08 11:25:06;;;;;;;0.77;0.68;;;;;;;11.61;100.00;98706.56;6133046;23;20012;-96
2023/03/08 11:27:48;;;;;;;0.70;0.70;;;;;;;11.75;100.00;98718.22;6132373;23;20040;-95
2023/03/08 11:30:19;;;;;;;2.08;0.43;;;;;;;11.91;100.00;98715.75;6108553;23;20342;-96
2023/03/08 11:33:24;;;;;;;0.57;0.52;;;;;;;11.83;100.00;98686.81;6132408;23;20469;-96
2023/03/08 11:36:10;;;;;;;1.00;0.88;;;;;;;12.11;100.00;98713.09;6127109;23;20027;-95
2023/03/08 11:38:37;;;;;;;1.17;0.95;;;;;;;12.17;100.00;98698.53;6132119;23;20534;-95